Time;durP1;ratioP1;P1;durP2;ratioP2;P2;SDS_P1;SDS_P2;PMS_P1;PMS_P2;Temp;Humidity;BMP_temperature;BMP_pressure;BME280_temperature;BME280_humidity;BME280_pressure;Samples;Min_cycle;Max_cycle;Signal;HPM_P1;HPM_P2
2023/10/25 00:00:05;;;;;;;3.00;1.20;;;16.80;70.40;;;;;;348372;28;852;-56
2023/10/25 00:00:16;;;;;;;3.75;1.25;;;16.80;70.50;;;;;;348281;28;1045;-57
2023/10/25 00:00:27;;;;;;;4.05;1.30;;;16.80;70.50;;;;;;348374;28;924;-56
2023/10/25 00:00:38;;;;;;;2.63;1.30;;;16.80;70.50;;;;;;348391;28;1015;-58
2023/10/25 00:00:48;;;;;;;2.60;1.30;;;16.80;70.40;;;;;;348270;28;1098;-57
2023/10/25 00:00:59;;;;;;;2.00;1.30;;;16.80;70.50;;;;;;348339;28;841;-56
2023/10/25 00:01:10;;;;;;;2.03;1.23;;;16.80;70.40;;;;;;348369;28;1008;-56
2023/10/25 00:01:21;;;;;;;3.17;1.15;;;16.80;70.40;;;;;;348249;28;988;-55
2023/10/25 00:01:31;;;;;;;3.42;1.00;;;16.80;70.30;;;;;;348342;28;1147;-56
2023/10/25 00:01:42;;;;;;;3.23;1.00;;;16.80;70.30;;;;;;348399;28;881;-56
2023/10/25 00:01:53;;;;;;;2.30;1.00;;;16.80;70.40;;;;;;348261;28;1044;-56
2023/10/25 00:02:03;;;;;;;2.92;1.10;;;16.80;70.40;;;;;;348282;28;1485;-56
2023/10/25 00:02:14;;;;;;;3.13;1.20;;;16.80;70.40;;;;;;348329;28;1024;-56
2023/10/25 00:02:25;;;;;;;2.63;1.20;;;16.80;70.40;;;;;;348314;28;1038;-57
2023/10/25 00:02:37;;;;;;;2.70;1.20;;;16.80;70.40;;;;;;348331;28;1099;-56
2023/10/25 00:02:47;;;;;;;2.75;1.20;;;16.80;70.40;;;;;;348335;28;1008;-57
2023/10/25 00:02:58;;;;;;;2.90;1.10;;;16.80;70.40;;;;;;348314;28;976;-56
2023/10/25 00:03:12;;;;;;;2.85;1.00;;;16.80;70.50;;;;;;348345;28;1088;-56
2023/10/25 00:03:22;;;;;;;2.58;0.95;;;16.80;70.50;;;;;;348390;28;1008;-55
2023/10/25 00:03:34;;;;;;;2.58;1.08;;;16.80;70.40;;;;;;348239;28;1617;-56
2023/10/25 00:03:45;;;;;;;2.90;1.20;;;16.80;70.40;;;;;;348358;28;1161;-55
2023/10/25 00:03:56;;;;;;;2.70;1.20;;;16.80;70.40;;;;;;348333;28;1058;-55
2023/10/25 00:04:07;;;;;;;3.65;1.30;;;16.80;70.30;;;;;;348271;28;938;-57
2023/10/25 00:04:17;;;;;;;3.57;1.40;;;16.80;70.40;;;;;;348402;28;864;-57
2023/10/25 00:04:28;;;;;;;3.35;1.30;;;16.80;70.40;;;;;;348384;28;956;-56
2023/10/25 00:04:39;;;;;;;2.42;1.15;;;16.80;70.40;;;;;;348311;28;985;-56
2023/10/25 00:04:54;;;;;;;3.20;1.27;;;16.80;70.50;;;;;;348389;28;889;-55
2023/10/25 00:05:05;;;;;;;4.35;1.50;;;16.80;70.50;;;;;;348302;28;996;-56
2023/10/25 00:05:16;;;;;;;3.47;1.45;;;16.90;70.50;;;;;;348281;28;1053;-56
2023/10/25 00:05:32;;;;;;;3.10;1.23;;;16.80;70.50;;;;;;348269;28;1909;-56
2023/10/25 00:05:44;;;;;;;2.40;1.20;;;16.90;70.50;;;;;;348237;28;1017;-56
2023/10/25 00:05:55;;;;;;;2.80;1.33;;;16.80;70.50;;;;;;348295;28;1115;-55
2023/10/25 00:06:06;;;;;;;3.08;1.38;;;16.80;70.60;;;;;;348400;28;845;-57
2023/10/25 00:06:17;;;;;;;2.92;1.27;;;16.80;70.60;;;;;;348269;28;1019;-56
2023/10/25 00:06:27;;;;;;;2.67;1.20;;;16.90;70.50;;;;;;348309;28;1957;-58
2023/10/25 00:06:38;;;;;;;2.47;1.13;;;16.90;70.50;;;;;;348270;28;1470;-56
2023/10/25 00:06:49;;;;;;;2.93;1.30;;;16.90;70.50;;;;;;348221;28;1421;-57
2023/10/25 00:07:00;;;;;;;3.23;1.40;;;16.80;70.40;;;;;;348355;28;1027;-55
2023/10/25 00:07:11;;;;;;;3.58;1.52;;;16.90;70.50;;;;;;348368;28;991;-56
2023/10/25 00:07:22;;;;;;;2.78;1.35;;;16.90;70.50;;;;;;348282;28;975;-56
2023/10/25 00:07:32;;;;;;;2.78;1.40;;;16.90;70.40;;;;;;348358;28;1059;-56
2023/10/25 00:07:43;;;;;;;3.10;1.30;;;16.90;70.30;;;;;;348326;28;1019;-56
2023/10/25 00:07:54;;;;;;;3.17;1.43;;;16.90;70.30;;;;;;348248;28;1166;-56
2023/10/25 00:08:04;;;;;;;2.83;1.40;;;16.90;70.30;;;;;;348278;28;1443;-56
2023/10/25 00:08:15;;;;;;;2.67;1.38;;;16.90;70.40;;;;;;348354;28;1024;-55
2023/10/25 00:08:26;;;;;;;2.45;1.23;;;16.80;70.40;;;;;;348317;28;1052;-55
2023/10/25 00:08:36;;;;;;;3.23;1.30;;;16.90;70.40;;;;;;348394;28;900;-55
2023/10/25 00:08:47;;;;;;;2.60;1.20;;;16.90;70.40;;;;;;348354;28;864;-55
2023/10/25 00:08:58;;;;;;;2.78;1.23;;;16.90;70.50;;;;;;348268;28;1308;-56
2023/10/25 00:09:09;;;;;;;2.65;1.25;;;16.90;70.60;;;;;;348368;28;976;-56
2023/10/25 00:09:20;;;;;;;3.63;1.40;;;16.90;70.60;;;;;;348381;28;845;-56
2023/10/25 00:09:30;;;;;;;4.10;1.37;;;16.90;70.40;;;;;;348302;28;985;-56
2023/10/25 00:09:41;;;;;;;3.80;1.33;;;16.90;70.40;;;;;;348392;28;947;-55
2023/10/25 00:09:52;;;;;;;3.38;1.38;;;16.80;70.30;;;;;;348281;28;972;-54
2023/10/25 00:10:03;;;;;;;3.33;1.40;;;16.90;70.40;;;;;;348338;28;961;-56
2023/10/25 00:10:13;;;;;;;2.95;1.30;;;16.90;70.40;;;;;;348256;28;1456;-56
2023/10/25 00:10:24;;;;;;;2.43;1.27;;;16.90;70.50;;;;;;348337;28;964;-55
2023/10/25 00:10:35;;;;;;;2.22;1.30;;;16.90;70.60;;;;;;348228;28;1095;-55
2023/10/25 00:10:46;;;;;;;2.53;1.42;;;16.90;70.60;;;;;;348357;28;949;-56
2023/10/25 00:11:05;;;;;;;2.40;1.30;;;16.90;70.70;;;;;;348312;28;1027;-55
2023/10/25 00:11:16;;;;;;;3.05;1.25;;;16.80;70.80;;;;;;348185;28;1045;-55
2023/10/25 00:11:27;;;;;;;3.67;1.50;;;16.90;70.70;;;;;;348395;28;849;-56
2023/10/25 00:11:37;;;;;;;3.25;1.48;;;16.90;70.80;;;;;;348383;28;1011;-55
2023/10/25 00:11:48;;;;;;;3.27;1.43;;;16.80;70.80;;;;;;348258;28;914;-56
2023/10/25 00:11:59;;;;;;;3.17;1.30;;;16.90;70.80;;;;;;348391;28;987;-55
2023/10/25 00:12:09;;;;;;;3.50;1.27;;;16.90;70.70;;;;;;348314;28;1099;-56
2023/10/25 00:12:21;;;;;;;4.30;1.35;;;16.90;70.70;;;;;;348267;28;950;-56
2023/10/25 00:12:32;;;;;;;3.50;1.30;;;16.90;70.70;;;;;;348333;28;987;-55
2023/10/25 00:12:42;;;;;;;2.58;1.38;;;16.90;70.60;;;;;;348332;28;1020;-55
2023/10/25 00:12:53;;;;;;;3.00;1.48;;;16.90;70.60;;;;;;348289;28;937;-57
2023/10/25 00:13:04;;;;;;;3.53;1.53;;;16.90;70.60;;;;;;348309;28;1248;-56
2023/10/25 00:13:14;;;;;;;3.22;1.38;;;16.90;70.60;;;;;;348322;28;1035;-55
2023/10/25 00:13:25;;;;;;;2.88;1.20;;;16.90;70.60;;;;;;348284;28;1083;-56
2023/10/25 00:13:36;;;;;;;3.35;1.20;;;16.90;70.60;;;;;;348284;28;1103;-56
2023/10/25 00:13:47;;;;;;;3.88;1.40;;;16.90;70.60;;;;;;348304;28;1426;-56
2023/10/25 00:13:57;;;;;;;3.60;1.50;;;16.90;70.70;;;;;;348250;28;959;-55
2023/10/25 00:14:08;;;;;;;3.00;1.50;;;16.90;70.60;;;;;;348371;28;904;-56
2023/10/25 00:14:19;;;;;;;2.35;1.30;;;16.90;70.60;;;;;;348348;28;1070;-56
2023/10/25 00:14:30;;;;;;;2.42;1.23;;;16.90;70.60;;;;;;348231;28;1424;-55
2023/10/25 00:14:41;;;;;;;2.70;1.30;;;16.90;70.70;;;;;;348318;28;1296;-55
2023/10/25 00:14:53;;;;;;;2.72;1.33;;;16.90;70.70;;;;;;348227;28;1086;-56
2023/10/25 00:15:05;;;;;;;2.15;1.40;;;16.90;70.70;;;;;;348330;28;1020;-55
2023/10/25 00:15:15;;;;;;;2.70;1.40;;;16.90;70.60;;;;;;348252;28;1816;-56
2023/10/25 00:15:26;;;;;;;3.08;1.38;;;16.90;70.50;;;;;;348336;28;1053;-56
2023/10/25 00:15:37;;;;;;;2.83;1.30;;;16.90;70.50;;;;;;348226;28;1127;-56
2023/10/25 00:15:48;;;;;;;2.57;1.17;;;16.90;70.50;;;;;;348358;28;845;-55
2023/10/25 00:15:59;;;;;;;2.72;1.10;;;16.90;70.40;;;;;;348253;28;1036;-56
2023/10/25 00:16:10;;;;;;;2.75;1.17;;;16.90;70.40;;;;;;348280;28;1260;-56
2023/10/25 00:16:20;;;;;;;2.90;1.10;;;16.90;70.40;;;;;;348259;28;1543;-55
2023/10/25 00:16:31;;;;;;;2.00;1.00;;;16.90;70.50;;;;;;348297;28;1074;-56
2023/10/25 00:16:42;;;;;;;2.30;1.03;;;16.80;70.50;;;;;;348358;28;973;-57
2023/10/25 00:16:53;;;;;;;2.45;1.20;;;16.80;70.70;;;;;;348213;28;1083;-55
2023/10/25 00:17:04;;;;;;;2.65;1.40;;;16.80;70.80;;;;;;348359;28;861;-56
2023/10/25 00:17:14;;;;;;;2.70;1.38;;;16.80;70.90;;;;;;348171;28;1119;-55
2023/10/25 00:17:25;;;;;;;2.80;1.40;;;16.80;70.90;;;;;;348345;28;1150;-55
2023/10/25 00:17:36;;;;;;;2.37;1.20;;;16.80;70.80;;;;;;348349;28;1858;-56
2023/10/25 00:17:46;;;;;;;2.03;1.20;;;16.80;70.80;;;;;;348279;28;934;-56
2023/10/25 00:17:57;;;;;;;1.95;1.10;;;16.80;70.80;;;;;;348354;28;923;-55
2023/10/25 00:18:08;;;;;;;3.00;1.10;;;16.80;70.90;;;;;;348317;28;1247;-55
2023/10/25 00:18:18;;;;;;;3.23;1.07;;;16.80;71.00;;;;;;348294;28;1023;-55
2023/10/25 00:18:30;;;;;;;3.30;1.20;;;16.80;71.00;;;;;;348392;28;818;-56
2023/10/25 00:18:40;;;;;;;4.20;1.25;;;16.80;71.00;;;;;;348180;28;1591;-55
2023/10/25 00:18:51;;;;;;;4.03;1.25;;;16.80;71.00;;;;;;348365;28;857;-55
2023/10/25 00:19:02;;;;;;;3.58;1.20;;;16.80;71.10;;;;;;348323;28;984;-55
2023/10/25 00:19:13;;;;;;;2.20;1.17;;;16.80;71.10;;;;;;348200;28;1115;-55
2023/10/25 00:19:23;;;;;;;2.78;1.27;;;16.80;71.10;;;;;;348331;28;1034;-55
2023/10/25 00:19:34;;;;;;;2.50;1.20;;;16.80;71.10;;;;;;348303;28;1146;-55
2023/10/25 00:19:45;;;;;;;2.58;1.13;;;16.80;71.10;;;;;;348271;28;959;-55
2023/10/25 00:19:56;;;;;;;2.30;1.10;;;16.80;71.00;;;;;;348290;28;1465;-56
2023/10/25 00:20:07;;;;;;;2.33;1.10;;;16.80;71.00;;;;;;348369;28;1352;-56
2023/10/25 00:20:18;;;;;;;2.65;1.15;;;16.80;71.00;;;;;;348266;28;932;-56
2023/10/25 00:20:29;;;;;;;2.58;1.13;;;16.80;71.10;;;;;;348406;28;857;-56
2023/10/25 00:20:39;;;;;;;2.92;1.15;;;16.80;71.00;;;;;;348349;28;1102;-56
2023/10/25 00:20:51;;;;;;;2.90;1.10;;;16.80;70.90;;;;;;348253;28;1082;-56
2023/10/25 00:21:03;;;;;;;3.08;1.10;;;16.80;70.90;;;;;;348333;28;810;-56
2023/10/25 00:21:14;;;;;;;2.28;1.05;;;16.80;70.90;;;;;;348273;28;1031;-56
2023/10/25 00:21:24;;;;;;;2.42;1.20;;;16.90;71.00;;;;;;348327;28;1083;-56
2023/10/25 00:21:35;;;;;;;2.25;1.10;;;16.80;70.90;;;;;;348247;28;976;-56
2023/10/25 00:21:46;;;;;;;2.37;1.13;;;16.80;70.90;;;;;;348335;28;1067;-55
2023/10/25 00:21:56;;;;;;;2.88;1.10;;;16.80;70.90;;;;;;348356;28;1050;-56
2023/10/25 00:22:07;;;;;;;2.58;1.10;;;16.80;70.80;;;;;;348230;28;1219;-57
2023/10/25 00:22:18;;;;;;;2.23;1.00;;;16.80;70.80;;;;;;348444;28;809;-56
2023/10/25 00:22:28;;;;;;;2.07;1.07;;;16.80;70.80;;;;;;348268;28;1882;-56
2023/10/25 00:22:39;;;;;;;2.45;1.20;;;16.80;70.80;;;;;;348295;28;943;-56
2023/10/25 00:22:50;;;;;;;2.38;1.20;;;16.80;70.80;;;;;;348323;28;936;-56
2023/10/25 00:23:00;;;;;;;2.30;1.20;;;16.80;70.80;;;;;;348339;28;1427;-55
2023/10/25 00:23:11;;;;;;;1.90;1.20;;;16.80;70.80;;;;;;348261;28;966;-55
2023/10/25 00:23:22;;;;;;;2.35;1.33;;;16.80;70.70;;;;;;348301;28;1107;-57
2023/10/25 00:23:33;;;;;;;3.28;1.50;;;16.80;70.70;;;;;;348295;28;989;-56
2023/10/25 00:23:43;;;;;;;3.17;1.40;;;16.80;70.80;;;;;;348264;28;1189;-56
2023/10/25 00:23:54;;;;;;;2.85;1.38;;;16.80;70.80;;;;;;348321;28;857;-55
2023/10/25 00:24:05;;;;;;;2.53;1.27;;;16.80;70.90;;;;;;348337;28;1289;-56
2023/10/25 00:24:16;;;;;;;3.17;1.30;;;16.80;71.00;;;;;;348256;28;852;-56
2023/10/25 00:24:27;;;;;;;3.35;1.27;;;16.80;70.90;;;;;;348366;28;976;-56
2023/10/25 00:24:37;;;;;;;3.17;1.38;;;16.80;70.90;;;;;;348303;28;1055;-55
2023/10/25 00:24:48;;;;;;;3.00;1.40;;;16.80;70.90;;;;;;348326;28;949;-55
2023/10/25 00:24:59;;;;;;;3.35;1.30;;;16.80;70.90;;;;;;348303;28;1035;-55
2023/10/25 00:25:10;;;;;;;3.00;1.20;;;16.80;70.90;;;;;;348183;28;1430;-56
2023/10/25 00:25:20;;;;;;;2.80;1.20;;;16.70;71.00;;;;;;348285;28;1602;-55
2023/10/25 00:25:31;;;;;;;2.83;1.27;;;16.80;71.00;;;;;;348288;28;1914;-55
2023/10/25 00:25:42;;;;;;;3.13;1.33;;;16.80;71.10;;;;;;348357;28;961;-57
2023/10/25 00:25:52;;;;;;;2.97;1.27;;;16.80;71.10;;;;;;348324;28;984;-56
2023/10/25 00:26:03;;;;;;;2.85;1.40;;;16.80;71.10;;;;;;348256;28;1013;-56
2023/10/25 00:26:14;;;;;;;3.20;1.30;;;16.80;71.10;;;;;;348337;28;1007;-55
2023/10/25 00:26:25;;;;;;;3.50;1.37;;;16.80;71.10;;;;;;348375;28;865;-57
2023/10/25 00:26:35;;;;;;;4.15;1.20;;;16.80;71.20;;;;;;348281;28;1407;-57
2023/10/25 00:26:46;;;;;;;3.67;1.13;;;16.80;71.20;;;;;;348307;28;1063;-57
2023/10/25 00:26:57;;;;;;;3.33;1.00;;;16.80;71.30;;;;;;348233;28;1151;-56
2023/10/25 00:27:07;;;;;;;2.72;1.10;;;16.80;71.30;;;;;;348284;28;1102;-56
2023/10/25 00:27:18;;;;;;;2.50;1.10;;;16.80;71.20;;;;;;348260;28;1000;-56
2023/10/25 00:27:29;;;;;;;2.10;1.10;;;16.80;71.10;;;;;;348319;28;818;-57
2023/10/25 00:27:40;;;;;;;1.83;1.07;;;16.80;71.10;;;;;;348320;28;1012;-55
2023/10/25 00:27:50;;;;;;;2.20;1.17;;;16.80;71.00;;;;;;348229;28;1160;-56
2023/10/25 00:28:01;;;;;;;2.67;1.20;;;16.80;71.00;;;;;;348283;28;1063;-56
2023/10/25 00:28:12;;;;;;;2.60;1.20;;;16.80;71.00;;;;;;348302;28;1186;-55
2023/10/25 00:28:23;;;;;;;2.33;1.13;;;16.80;71.10;;;;;;348311;28;964;-56
2023/10/25 00:28:33;;;;;;;2.20;1.10;;;16.80;71.10;;;;;;348329;28;1340;-55
2023/10/25 00:28:44;;;;;;;2.10;1.10;;;16.80;71.10;;;;;;348225;28;1055;-55
2023/10/25 00:28:55;;;;;;;2.40;1.17;;;16.80;71.00;;;;;;348325;28;1130;-56
2023/10/25 00:29:06;;;;;;;2.10;1.05;;;16.70;70.90;;;;;;348310;28;1163;-57
2023/10/25 00:29:16;;;;;;;2.30;1.03;;;16.80;70.90;;;;;;348336;28;892;-57
2023/10/25 00:29:27;;;;;;;2.50;1.08;;;16.80;70.90;;;;;;348286;28;1187;-56
2023/10/25 00:29:38;;;;;;;2.50;1.10;;;16.80;70.90;;;;;;348268;28;1011;-56
2023/10/25 00:29:48;;;;;;;1.98;1.15;;;16.80;70.90;;;;;;348353;28;884;-56
2023/10/25 00:29:59;;;;;;;2.50;1.30;;;16.70;70.90;;;;;;348251;28;1463;-55
2023/10/25 00:30:10;;;;;;;2.80;1.33;;;16.80;70.90;;;;;;348274;28;934;-55
2023/10/25 00:30:21;;;;;;;2.63;1.30;;;16.80;71.00;;;;;;348300;28;1000;-55
2023/10/25 00:30:32;;;;;;;2.40;1.25;;;16.80;71.00;;;;;;348263;28;1107;-56
2023/10/25 00:30:46;;;;;;;2.47;1.30;;;16.80;71.00;;;;;;348301;28;1047;-56
2023/10/25 00:30:57;;;;;;;2.33;1.20;;;16.80;71.00;;;;;;348271;28;1066;-56
2023/10/25 00:31:07;;;;;;;4.97;1.50;;;16.80;71.00;;;;;;348210;28;1255;-56
2023/10/25 00:31:18;;;;;;;5.30;1.60;;;16.80;71.00;;;;;;348238;28;1210;-56
2023/10/25 00:31:29;;;;;;;3.63;1.50;;;16.80;71.10;;;;;;348278;28;1154;-56
2023/10/25 00:31:39;;;;;;;2.25;1.50;;;16.80;71.10;;;;;;348214;28;1008;-56
2023/10/25 00:31:50;;;;;;;2.40;1.40;;;16.80;71.10;;;;;;348263;28;1072;-56
2023/10/25 00:32:01;;;;;;;2.40;1.33;;;16.80;71.10;;;;;;348305;28;905;-55
2023/10/25 00:32:14;;;;;;;2.73;1.30;;;16.80;71.10;;;;;;348229;28;1936;-55
2023/10/25 00:32:25;;;;;;;2.42;1.30;;;16.80;71.10;;;;;;348305;28;858;-55
2023/10/25 00:32:35;;;;;;;2.93;1.33;;;16.80;71.20;;;;;;348263;28;1035;-56
2023/10/25 00:32:47;;;;;;;3.42;1.33;;;16.80;71.10;;;;;;348313;28;968;-56
2023/10/25 00:32:57;;;;;;;4.05;1.45;;;16.70;70.80;;;;;;348247;28;1140;-55
2023/10/25 00:33:08;;;;;;;3.83;1.52;;;16.70;71.10;;;;;;348179;28;1174;-56
2023/10/25 00:33:19;;;;;;;3.80;1.45;;;16.60;71.40;;;;;;348331;28;1182;-56
2023/10/25 00:33:29;;;;;;;3.30;1.40;;;16.60;71.60;;;;;;348314;28;891;-56
2023/10/25 00:33:40;;;;;;;3.20;1.40;;;16.60;71.70;;;;;;348266;28;1013;-56
2023/10/25 00:33:51;;;;;;;2.92;1.50;;;16.60;71.80;;;;;;348321;28;991;-56
2023/10/25 00:34:03;;;;;;;2.78;1.40;;;16.60;71.80;;;;;;348286;28;1012;-57
2023/10/25 00:34:13;;;;;;;2.33;1.30;;;16.60;71.80;;;;;;348226;28;1827;-57
2023/10/25 00:34:24;;;;;;;2.07;1.20;;;16.60;71.70;;;;;;348370;28;885;-55
2023/10/25 00:34:35;;;;;;;2.35;1.20;;;16.70;71.70;;;;;;348265;28;1241;-56
2023/10/25 00:34:46;;;;;;;2.55;1.30;;;16.70;71.70;;;;;;348299;28;1321;-55
2023/10/25 00:34:56;;;;;;;2.75;1.33;;;16.70;71.70;;;;;;348257;28;1047;-55
2023/10/25 00:35:07;;;;;;;2.70;1.40;;;16.60;71.70;;;;;;348372;28;1011;-56
2023/10/25 00:35:18;;;;;;;2.10;1.20;;;16.60;71.70;;;;;;348165;28;1311;-56
2023/10/25 00:35:29;;;;;;;2.47;1.20;;;16.60;71.70;;;;;;348338;28;809;-57
2023/10/25 00:35:40;;;;;;;2.17;1.10;;;16.70;71.80;;;;;;348240;28;1024;-56
2023/10/25 00:35:51;;;;;;;2.10;1.10;;;16.70;71.90;;;;;;348273;28;1024;-56
2023/10/25 00:36:02;;;;;;;1.77;1.10;;;16.70;72.00;;;;;;348374;28;806;-55
2023/10/25 00:36:12;;;;;;;2.10;1.20;;;16.70;71.90;;;;;;348345;28;1008;-55
2023/10/25 00:36:23;;;;;;;2.15;1.20;;;16.70;71.80;;;;;;348244;28;985;-56
2023/10/25 00:36:34;;;;;;;2.20;1.20;;;16.60;71.80;;;;;;348289;28;1008;-56
2023/10/25 00:36:44;;;;;;;2.10;1.30;;;16.70;71.80;;;;;;348219;28;1706;-55
2023/10/25 00:36:55;;;;;;;2.55;1.35;;;16.70;71.70;;;;;;348229;28;1103;-57
2023/10/25 00:37:06;;;;;;;2.75;1.40;;;16.60;71.70;;;;;;348280;28;892;-55
2023/10/25 00:37:16;;;;;;;2.63;1.30;;;16.60;71.80;;;;;;348329;28;972;-56
2023/10/25 00:37:27;;;;;;;3.58;1.40;;;16.60;71.80;;;;;;348324;28;1000;-55
2023/10/25 00:37:38;;;;;;;3.67;1.50;;;16.60;71.90;;;;;;348343;28;900;-55
2023/10/25 00:37:48;;;;;;;3.90;1.50;;;16.60;72.00;;;;;;348236;28;1068;-55
2023/10/25 00:37:59;;;;;;;2.43;1.30;;;16.60;72.10;;;;;;348317;28;1023;-57
2023/10/25 00:38:10;;;;;;;3.05;1.15;;;16.60;72.10;;;;;;348302;28;1016;-56
2023/10/25 00:38:22;;;;;;;2.92;1.30;;;16.60;72.00;;;;;;348300;28;1086;-56
2023/10/25 00:38:32;;;;;;;3.40;1.30;;;16.60;71.90;;;;;;348147;28;1521;-56
2023/10/25 00:38:43;;;;;;;2.63;1.40;;;16.70;71.80;;;;;;348330;28;991;-55
2023/10/25 00:38:54;;;;;;;3.15;1.50;;;16.60;71.80;;;;;;348309;28;1000;-56
2023/10/25 00:39:05;;;;;;;2.65;1.50;;;16.60;71.90;;;;;;348329;28;995;-56
2023/10/25 00:39:16;;;;;;;2.85;1.40;;;16.70;71.90;;;;;;348238;28;941;-57
2023/10/25 00:39:28;;;;;;;2.35;1.30;;;16.70;71.90;;;;;;348315;28;952;-55
2023/10/25 00:39:39;;;;;;;2.70;1.30;;;16.70;71.90;;;;;;348249;28;1205;-56
2023/10/25 00:39:49;;;;;;;2.60;1.40;;;16.60;71.90;;;;;;348295;28;975;-56
2023/10/25 00:40:00;;;;;;;2.70;1.40;;;16.70;71.90;;;;;;348274;28;1168;-56
2023/10/25 00:40:11;;;;;;;2.60;1.33;;;16.70;72.00;;;;;;348298;28;1850;-56
2023/10/25 00:40:22;;;;;;;2.45;1.30;;;16.70;71.90;;;;;;348319;28;956;-55
2023/10/25 00:40:33;;;;;;;2.60;1.40;;;16.70;71.90;;;;;;348261;28;1095;-55
2023/10/25 00:40:43;;;;;;;2.22;1.33;;;16.70;71.90;;;;;;348197;28;1146;-57
2023/10/25 00:40:54;;;;;;;3.15;1.38;;;16.70;71.80;;;;;;348313;28;829;-56
2023/10/25 00:41:05;;;;;;;3.30;1.40;;;16.70;71.80;;;;;;348389;28;844;-56
2023/10/25 00:41:15;;;;;;;3.63;1.50;;;16.70;71.70;;;;;;348247;28;1199;-55
2023/10/25 00:41:26;;;;;;;3.00;1.60;;;16.70;71.80;;;;;;348226;28;1079;-55
2023/10/25 00:41:37;;;;;;;2.57;1.50;;;16.70;71.80;;;;;;348301;28;951;-56
2023/10/25 00:41:47;;;;;;;1.90;1.40;;;16.70;71.80;;;;;;348314;28;1055;-56
2023/10/25 00:41:58;;;;;;;2.08;1.40;;;16.70;71.80;;;;;;348307;28;1058;-56
2023/10/25 00:42:09;;;;;;;2.25;1.38;;;16.70;71.70;;;;;;348238;28;1004;-56
2023/10/25 00:42:20;;;;;;;2.70;1.30;;;16.70;71.60;;;;;;348332;28;770;-56
2023/10/25 00:42:30;;;;;;;3.45;1.17;;;16.70;71.60;;;;;;348296;28;926;-56
2023/10/25 00:42:41;;;;;;;4.03;1.23;;;16.70;71.70;;;;;;348264;28;1035;-56
2023/10/25 00:42:52;;;;;;;4.40;1.58;;;16.70;71.70;;;;;;348199;28;980;-56
2023/10/25 00:43:20;;;;;;;3.03;1.50;;;16.70;71.70;;;;;;348257;28;1139;-55
2023/10/25 00:43:31;;;;;;;3.10;1.40;;;16.70;71.80;;;;;;348225;28;992;-56
2023/10/25 00:43:41;;;;;;;2.20;1.30;;;16.70;71.80;;;;;;348132;28;1470;-56
2023/10/25 00:43:54;;;;;;;2.13;1.20;;;16.70;71.70;;;;;;348238;28;1071;-56
2023/10/25 00:44:04;;;;;;;2.10;1.40;;;16.70;71.60;;;;;;348282;28;899;-56
2023/10/25 00:44:15;;;;;;;2.30;1.50;;;16.70;71.60;;;;;;348330;28;990;-55
2023/10/25 00:44:26;;;;;;;2.43;1.50;;;16.70;71.50;;;;;;348236;28;1081;-56
2023/10/25 00:44:37;;;;;;;2.83;1.50;;;16.70;71.60;;;;;;348290;28;1086;-56
2023/10/25 00:44:47;;;;;;;2.72;1.42;;;16.70;71.70;;;;;;348340;28;940;-55
2023/10/25 00:44:58;;;;;;;2.57;1.50;;;16.70;71.70;;;;;;348221;28;1502;-56
2023/10/25 00:45:09;;;;;;;2.50;1.58;;;16.70;71.80;;;;;;348237;28;1098;-56
2023/10/25 00:45:19;;;;;;;3.20;1.70;;;16.60;71.90;;;;;;348299;28;892;-55
2023/10/25 00:45:32;;;;;;;3.50;1.63;;;16.70;72.00;;;;;;348266;28;1996;-56
2023/10/25 00:46:09;;;;;;;3.28;1.60;;;16.70;72.00;;;;;;348237;28;1485;-56
2023/10/25 00:46:27;;;;;;;3.10;1.60;;;16.70;71.90;;;;;;345201;28;1393;-56
2023/10/25 00:46:38;;;;;;;2.90;1.60;;;16.70;72.00;;;;;;348111;28;1857;-56
2023/10/25 00:46:49;;;;;;;3.13;1.60;;;16.70;72.00;;;;;;348243;28;2049;-56
2023/10/25 00:47:00;;;;;;;3.78;1.55;;;16.70;72.00;;;;;;348319;28;850;-56
2023/10/25 00:47:11;;;;;;;4.03;1.35;;;16.70;72.00;;;;;;348268;28;879;-55
2023/10/25 00:47:22;;;;;;;4.20;1.45;;;16.70;72.00;;;;;;348335;28;980;-55
2023/10/25 00:47:33;;;;;;;2.55;1.42;;;16.70;72.00;;;;;;348290;28;1105;-56
2023/10/25 00:47:44;;;;;;;1.95;1.45;;;16.70;72.00;;;;;;348272;28;1247;-55
2023/10/25 00:47:55;;;;;;;2.33;1.40;;;16.70;71.90;;;;;;348170;28;1154;-56
2023/10/25 00:48:06;;;;;;;2.65;1.40;;;16.70;71.80;;;;;;348327;28;1011;-55
2023/10/25 00:48:16;;;;;;;2.55;1.52;;;16.70;71.80;;;;;;348306;28;1180;-55
2023/10/25 00:48:29;;;;;;;2.60;1.70;;;16.70;71.80;;;;;;348266;28;1147;-57
2023/10/25 00:48:45;;;;;;;2.83;1.60;;;16.70;71.70;;;;;;348179;28;1062;-55
2023/10/25 00:48:59;;;;;;;2.38;1.40;;;16.70;71.70;;;;;;348229;28;1031;-55
2023/10/25 00:49:10;;;;;;;1.72;1.40;;;16.70;71.70;;;;;;348286;28;967;-56
2023/10/25 00:49:21;;;;;;;2.00;1.50;;;16.70;71.70;;;;;;348311;28;891;-55
2023/10/25 00:49:32;;;;;;;2.50;1.60;;;16.70;71.70;;;;;;348306;28;959;-56
2023/10/25 00:49:43;;;;;;;3.38;1.70;;;16.70;71.80;;;;;;348293;28;1022;-56
2023/10/25 00:49:54;;;;;;;3.80;1.70;;;16.70;71.80;;;;;;348286;28;1011;-58
2023/10/25 00:50:06;;;;;;;3.47;1.60;;;16.60;71.70;;;;;;348173;28;2132;-55
2023/10/25 00:50:18;;;;;;;3.35;1.70;;;16.70;71.80;;;;;;348278;28;1130;-56
2023/10/25 00:50:28;;;;;;;2.90;1.80;;;16.60;71.80;;;;;;348149;28;1318;-55
2023/10/25 00:50:39;;;;;;;3.20;1.80;;;16.70;71.80;;;;;;348119;28;1479;-55
2023/10/25 00:50:50;;;;;;;3.25;1.88;;;16.60;71.80;;;;;;348027;28;1074;-55
2023/10/25 00:51:01;;;;;;;3.35;1.85;;;16.60;71.90;;;;;;348218;28;1020;-55
2023/10/25 00:51:14;;;;;;;3.22;1.80;;;16.60;71.90;;;;;;348176;28;1161;-56
2023/10/25 00:51:28;;;;;;;2.78;1.65;;;16.60;72.00;;;;;;348306;28;888;-56
2023/10/25 00:51:39;;;;;;;2.97;1.60;;;16.60;72.10;;;;;;348181;28;1602;-56
2023/10/25 00:51:50;;;;;;;2.90;1.70;;;16.60;72.20;;;;;;348284;28;833;-56
2023/10/25 00:52:01;;;;;;;2.20;1.70;;;16.60;72.10;;;;;;348250;28;1030;-56
2023/10/25 00:52:12;;;;;;;2.40;1.70;;;16.60;72.10;;;;;;348275;28;841;-56
2023/10/25 00:52:23;;;;;;;2.53;1.55;;;16.60;72.20;;;;;;348200;28;1022;-56
2023/10/25 00:52:34;;;;;;;3.40;1.60;;;16.60;72.20;;;;;;348281;28;1205;-56
2023/10/25 00:52:45;;;;;;;3.00;1.65;;;16.60;72.30;;;;;;348199;28;941;-56
2023/10/25 00:52:56;;;;;;;2.88;1.60;;;16.60;72.40;;;;;;348273;28;1051;-55
2023/10/25 00:53:07;;;;;;;3.40;1.52;;;16.60;72.50;;;;;;348219;28;931;-56
2023/10/25 00:53:19;;;;;;;3.30;1.58;;;16.60;72.50;;;;;;348312;28;1039;-55
2023/10/25 00:53:32;;;;;;;2.78;1.60;;;16.60;72.50;;;;;;348211;28;987;-56
2023/10/25 00:53:49;;;;;;;2.97;1.60;;;16.60;72.40;;;;;;348305;28;802;-57
2023/10/25 00:54:02;;;;;;;3.03;1.65;;;16.60;72.20;;;;;;348291;28;912;-55
2023/10/25 00:54:14;;;;;;;2.90;1.70;;;16.60;72.20;;;;;;348271;28;939;-56
2023/10/25 00:54:26;;;;;;;3.67;1.90;;;16.60;72.20;;;;;;348191;28;1025;-55
2023/10/25 00:54:37;;;;;;;3.67;2.05;;;16.60;72.30;;;;;;348284;28;1000;-56
2023/10/25 00:54:48;;;;;;;3.55;2.00;;;16.60;72.30;;;;;;348321;28;874;-56
2023/10/25 00:54:59;;;;;;;3.30;1.88;;;16.60;72.40;;;;;;348264;28;1106;-56
2023/10/25 00:55:10;;;;;;;2.80;1.70;;;16.60;72.50;;;;;;348190;28;1547;-55
2023/10/25 00:55:20;;;;;;;2.92;1.63;;;16.60;72.50;;;;;;348189;28;1126;-56
2023/10/25 00:55:31;;;;;;;2.80;1.70;;;16.60;72.50;;;;;;348287;28;1876;-56
2023/10/25 00:55:42;;;;;;;3.00;1.65;;;16.60;72.50;;;;;;348275;28;1063;-56
2023/10/25 00:55:55;;;;;;;2.17;1.55;;;16.60;72.40;;;;;;348258;28;1169;-55
2023/10/25 00:56:09;;;;;;;2.13;1.50;;;16.60;72.30;;;;;;348282;28;987;-56
2023/10/25 00:56:28;;;;;;;2.22;1.45;;;16.60;72.20;;;;;;348176;28;1209;-55
2023/10/25 00:56:41;;;;;;;3.92;1.77;;;16.60;72.10;;;;;;348297;28;987;-55
2023/10/25 00:56:54;;;;;;;4.15;1.80;;;16.60;72.10;;;;;;348272;28;991;-55
2023/10/25 00:57:04;;;;;;;3.40;1.70;;;16.60;72.10;;;;;;348271;28;964;-56
2023/10/25 00:57:16;;;;;;;2.42;1.60;;;16.60;72.10;;;;;;348235;28;1003;-55
2023/10/25 00:57:26;;;;;;;2.15;1.70;;;16.60;72.00;;;;;;348253;28;1061;-56
2023/10/25 00:57:37;;;;;;;2.15;1.70;;;16.60;71.90;;;;;;348325;28;904;-57
2023/10/25 00:57:48;;;;;;;2.47;1.75;;;16.60;71.90;;;;;;348277;28;976;-56
2023/10/25 00:57:59;;;;;;;2.95;1.80;;;16.60;71.90;;;;;;348308;28;825;-57
2023/10/25 00:58:10;;;;;;;3.58;1.90;;;16.60;71.90;;;;;;348204;28;1154;-56
2023/10/25 00:58:22;;;;;;;3.13;1.85;;;16.70;71.90;;;;;;348294;28;1110;-57
2023/10/25 00:58:34;;;;;;;3.47;1.85;;;16.60;72.00;;;;;;348241;28;1119;-55
2023/10/25 00:58:51;;;;;;;3.25;1.80;;;16.70;72.00;;;;;;348334;28;936;-56
2023/10/25 00:59:02;;;;;;;2.80;1.92;;;16.60;72.10;;;;;;348242;28;985;-56
2023/10/25 00:59:14;;;;;;;2.70;1.83;;;16.60;72.20;;;;;;348250;28;992;-55
2023/10/25 00:59:25;;;;;;;2.78;1.80;;;16.60;72.20;;;;;;348288;28;951;-57
2023/10/25 00:59:37;;;;;;;2.85;1.83;;;16.70;72.20;;;;;;348318;28;967;-56
2023/10/25 00:59:49;;;;;;;2.90;1.80;;;16.60;72.20;;;;;;348209;28;1515;-56
2023/10/25 01:00:00;;;;;;;3.30;1.90;;;16.60;72.20;;;;;;348151;28;1454;-56
2023/10/25 01:00:12;;;;;;;3.20;1.90;;;16.70;72.20;;;;;;348289;28;875;-55
2023/10/25 01:00:25;;;;;;;2.88;1.83;;;16.60;72.20;;;;;;348243;28;1123;-55
2023/10/25 01:00:35;;;;;;;2.75;1.67;;;16.60;72.30;;;;;;348271;28;1118;-55